Time;durP1;ratioP1;P1;durP2;ratioP2;P2;SDS_P1;SDS_P2;PMS_P1;PMS_P2;Temp;Humidity;BMP_temperature;BMP_pressure;BME280_temperature;BME280_humidity;BME280_pressure;Samples;Min_cycle;Max_cycle;Signal;HPM_P1;HPM_P2
2023/02/27 02:58:19;;;;;;;6.90;2.60;;;;;;;1.86;62.45;100794.19;102402;1293;600042;-53
2023/02/27 03:01:17;;;;;;;5.60;2.60;;;;;;;2.02;61.75;100793.09;105129;1269;59356;-53
2023/02/27 03:03:55;;;;;;;7.30;2.20;;;;;;;2.02;61.50;100794.66;104631;1267;59430;-54
2023/02/27 03:06:30;;;;;;;9.20;4.00;;;;;;;2.00;61.36;100800.24;104987;1269;64417;-54
2023/02/27 03:09:10;;;;;;;6.00;2.20;;;;;;;1.97;61.44;100806.42;104650;1267;62432;-54
2023/02/27 03:11:40;;;;;;;6.40;2.40;;;;;;;1.93;61.49;100807.98;104484;1264;177366;-54
2023/02/27 03:14:20;;;;;;;7.30;2.20;;;;;;;1.89;61.67;100815.21;105200;1266;60645;-54
2023/02/27 03:16:50;;;;;;;10.10;4.10;;;;;;;1.85;61.87;100815.00;104875;1269;59356;-54
2023/02/27 03:19:22;;;;;;;7.90;2.80;;;;;;;1.82;62.02;100820.46;104903;1269;64695;-53
2023/02/27 03:22:18;;;;;;;6.40;1.70;;;;;;;1.87;62.04;100824.62;105032;1264;71277;-54
2023/02/27 03:24:49;;;;;;;8.90;3.00;;;;;;;1.95;61.88;100830.88;105539;1263;65148;-54
2023/02/27 03:27:22;;;;;;;7.50;3.30;;;;;;;2.04;61.82;100833.71;104919;1268;59572;-53
2023/02/27 03:30:02;;;;;;;9.00;2.60;;;;;;;2.09;61.58;100834.91;105153;1264;61101;-53
2023/02/27 03:33:00;;;;;;;8.00;2.80;;;;;;;2.07;61.43;100836.69;104868;1263;65102;-53
2023/02/27 03:35:50;;;;;;;6.20;2.60;;;;;;;2.03;61.26;100836.66;105099;1264;62630;-54
2023/02/27 03:38:33;;;;;;;8.60;3.10;;;;;;;2.00;61.08;100836.95;105059;1266;65380;-54
2023/02/27 03:41:28;;;;;;;8.20;3.50;;;;;;;1.94;60.93;100838.23;104865;1265;60162;-55
2023/02/27 03:44:34;;;;;;;8.40;3.00;;;;;;;1.85;60.71;100838.21;104945;1263;59678;-54
2023/02/27 03:47:02;;;;;;;7.40;2.10;;;;;;;1.76;60.71;100838.52;105058;1268;65530;-54
2023/02/27 03:49:32;;;;;;;7.10;3.50;;;;;;;1.67;60.82;100836.59;104793;1264;62637;-54
2023/02/27 03:52:00;;;;;;;8.60;4.00;;;;;;;1.62;60.93;100841.59;104783;1264;73356;-54
2023/02/27 03:54:32;;;;;;;7.70;3.60;;;;;;;1.66;60.99;100841.81;104942;1261;62160;-54
2023/02/27 03:57:01;;;;;;;6.90;2.30;;;;;;;1.72;60.88;100845.27;105026;1264;60209;-54
2023/02/27 03:59:31;;;;;;;8.60;2.80;;;;;;;1.72;61.07;100848.00;105058;1264;72970;-54
2023/02/27 04:02:00;;;;;;;8.10;3.40;;;;;;;1.65;61.05;100848.58;105002;1263;70993;-54
2023/02/27 04:04:34;;;;;;;8.10;3.20;;;;;;;1.68;60.88;100845.71;104686;1264;72638;-54
2023/02/27 04:07:22;;;;;;;8.10;3.30;;;;;;;1.65;60.86;100852.57;104946;1264;59558;-55
2023/02/27 04:10:15;;;;;;;8.80;3.70;;;;;;;1.62;60.96;100861.84;104983;1264;59800;-54
2023/02/27 04:17:05;;;;;;;8.90;3.60;;;;;;;1.39;61.71;100861.77;102090;1297;601197;-67
2023/02/27 04:19:36;;;;;;;8.40;3.30;;;;;;;1.46;61.39;100861.55;104467;1267;59349;-67
2023/02/27 04:22:20;;;;;;;7.30;2.60;;;;;;;1.52;61.25;100865.67;104536;1266;61479;-66
2023/02/27 04:25:00;;;;;;;6.40;2.50;;;;;;;1.52;61.23;100872.92;105730;1267;64635;-67
2023/02/27 04:27:40;;;;;;;10.20;3.80;;;;;;;1.52;61.14;100871.35;104519;1269;62654;-69
2023/02/27 04:30:43;;;;;;;7.90;3.20;;;;;;;1.51;61.11;100878.48;104618;1267;178985;-69
2023/02/27 04:33:23;;;;;;;7.90;3.10;;;;;;;1.49;61.19;100879.92;104809;1264;59165;-69
2023/02/27 04:35:53;;;;;;;7.00;2.70;;;;;;;1.47;61.23;100884.48;104794;1264;59388;-69
2023/02/27 04:38:43;;;;;;;8.10;3.90;;;;;;;1.46;61.21;100892.31;104867;1265;73011;-71
2023/02/27 04:41:23;;;;;;;8.10;3.80;;;;;;;1.43;61.25;100896.02;104816;1264;62630;-67
2023/02/27 04:43:52;;;;;;;7.00;2.80;;;;;;;1.40;61.17;100898.21;104725;1269;63771;-70
2023/02/27 04:46:22;;;;;;;7.20;2.20;;;;;;;1.43;60.88;100898.45;104693;1264;62019;-66
2023/02/27 04:49:03;;;;;;;5.80;2.20;;;;;;;1.50;60.84;100901.69;105313;1259;61261;-68
2023/02/27 04:51:57;;;;;;;9.50;3.10;;;;;;;1.53;60.78;100905.73;105010;1262;65406;-67
2023/02/27 04:54:34;;;;;;;6.80;2.80;;;;;;;1.51;60.79;100910.11;105179;1260;61368;-68
2023/02/27 04:57:06;;;;;;;9.40;3.90;;;;;;;1.49;60.74;100920.02;105366;1259;64927;-66
2023/02/27 04:59:43;;;;;;;7.40;3.50;;;;;;;1.48;60.85;100921.30;105150;1257;60580;-68
2023/02/27 05:02:16;;;;;;;10.80;3.90;;;;;;;1.47;60.95;100923.58;105037;1262;59582;-67
2023/02/27 05:04:46;;;;;;;8.10;3.80;;;;;;;1.45;60.97;100927.44;105455;1257;65189;-67
2023/02/27 05:07:16;;;;;;;7.40;3.40;;;;;;;1.42;60.83;100928.73;105372;1262;70391;-69
2023/02/27 05:09:56;;;;;;;9.70;2.60;;;;;;;1.40;60.88;100933.14;105329;1257;72702;-69
2023/02/27 05:12:37;;;;;;;8.50;3.80;;;;;;;1.41;60.94;100937.95;105261;1257;59674;-67
2023/02/27 05:15:11;;;;;;;8.40;3.10;;;;;;;1.47;60.60;100945.00;105320;1258;59538;-69
2023/02/27 05:18:06;;;;;;;10.50;3.70;;;;;;;1.51;60.57;100955.95;105341;1257;73913;-68
2023/02/27 05:20:46;;;;;;;10.60;4.00;;;;;;;1.52;60.47;100957.13;105305;1263;62502;-68
2023/02/27 05:23:33;;;;;;;6.60;2.70;;;;;;;1.51;60.39;100965.09;105006;1257;65149;-67
2023/02/27 05:26:21;;;;;;;8.40;3.30;;;;;;;1.51;60.38;100966.12;105352;1260;59682;-69
2023/02/27 05:29:05;;;;;;;10.90;4.30;;;;;;;1.50;60.04;100967.58;105260;1260;59643;-69
2023/02/27 05:31:42;;;;;;;7.60;3.30;;;;;;;1.45;59.98;100971.89;105394;1257;66096;-68
2023/02/27 05:34:35;;;;;;;8.60;3.30;;;;;;;1.40;59.82;100973.09;105392;1257;71508;-70
2023/02/27 05:37:20;;;;;;;6.10;2.60;;;;;;;1.42;60.02;100976.28;105742;1262;64958;-69
2023/02/27 05:39:49;;;;;;;9.30;4.30;;;;;;;1.52;59.96;100980.83;105299;1263;59659;-68
2023/02/27 05:42:25;;;;;;;7.60;3.20;;;;;;;1.58;59.86;100980.10;105116;1257;61571;-68
2023/02/27 05:44:55;;;;;;;;;;;;;;;1.60;59.50;100978.13;105373;1261;73174;-69
2023/02/27 05:47:25;;;;;;;9.00;3.30;;;;;;;1.63;59.51;100981.82;105187;1263;70428;-70
2023/02/27 05:50:06;;;;;;;6.90;4.60;;;;;;;1.65;59.26;100982.29;105220;1263;73567;-69
2023/02/27 05:52:34;;;;;;;6.90;2.70;;;;;;;1.63;59.08;100986.83;105417;1258;60558;-67
2023/02/27 05:55:11;;;;;;;8.40;3.20;;;;;;;1.63;58.82;100989.27;105497;1257;60227;-69
2023/02/27 05:58:01;;;;;;;7.70;3.00;;;;;;;1.64;59.27;100994.23;105106;1257;73800;-67
2023/02/27 06:00:44;;;;;;;7.20;2.60;;;;;;;1.67;59.26;100992.41;105229;1257;61627;-71
2023/02/27 06:03:13;;;;;;;5.90;2.40;;;;;;;1.70;58.81;100996.82;105570;1260;73410;-68
2023/02/27 06:05:42;;;;;;;6.20;2.50;;;;;;;1.74;58.37;100997.55;105159;1258;60769;-68
2023/02/27 06:08:10;;;;;;;6.70;3.20;;;;;;;1.78;58.31;100993.45;105364;1267;61335;-69
2023/02/27 06:10:42;;;;;;;6.30;2.40;;;;;;;1.76;58.54;100994.89;105175;1262;73755;-69
2023/02/27 06:13:11;;;;;;;7.70;3.90;;;;;;;1.74;58.60;100994.77;105293;1262;71283;-71
2023/02/27 06:15:39;;;;;;;7.10;3.00;;;;;;;1.71;58.41;101004.92;105464;1260;73933;-68
2023/02/27 06:18:13;;;;;;;9.00;3.40;;;;;;;1.70;58.69;101011.36;105292;1256;60236;-68
2023/02/27 06:20:43;;;;;;;8.40;3.30;;;;;;;1.68;58.83;101010.54;105149;1263;61763;-68
2023/02/27 06:23:11;;;;;;;7.30;3.10;;;;;;;1.66;58.62;101005.42;105508;1261;74638;-67
2023/02/27 06:25:41;;;;;;;10.80;3.20;;;;;;;1.64;58.77;101007.91;105379;1263;72226;-68
2023/02/27 06:28:09;;;;;;;8.70;2.40;;;;;;;1.63;58.92;101007.25;105235;1262;73503;-68
2023/02/27 06:30:38;;;;;;;8.50;3.60;;;;;;;1.61;58.87;101006.44;105431;1262;60695;-70
2023/02/27 06:33:06;;;;;;;8.80;3.10;;;;;;;1.67;58.91;101001.42;105198;1262;60153;-68
2023/02/27 06:35:35;;;;;;;6.60;2.90;;;;;;;1.75;58.76;101001.83;105188;1262;73621;-69
2023/02/27 06:38:03;;;;;;;7.60;2.80;;;;;;;1.77;58.58;101003.86;105360;1257;70226;-69
2023/02/27 06:40:34;;;;;;;11.50;3.90;;;;;;;1.78;58.48;101017.31;105438;1257;73568;-69
2023/02/27 06:43:02;;;;;;;7.10;2.50;;;;;;;1.78;58.51;101017.15;105198;1262;60465;-68
2023/02/27 06:45:31;;;;;;;8.60;3.20;;;;;;;1.76;58.56;101022.23;105842;1257;61038;-68
2023/02/27 06:48:00;;;;;;;8.00;3.20;;;;;;;1.74;58.56;101025.39;105879;1256;74034;-69
2023/02/27 06:50:29;;;;;;;6.80;2.60;;;;;;;1.73;58.48;101033.91;105280;1260;69169;-69
2023/02/27 06:52:57;;;;;;;7.30;2.50;;;;;;;1.71;58.56;101038.14;105270;1263;73671;-68
2023/02/27 06:55:25;;;;;;;8.60;3.10;;;;;;;1.71;58.65;101042.64;105433;1261;60417;-68
2023/02/27 06:57:54;;;;;;;8.60;3.20;;;;;;;1.71;58.63;101036.07;105079;1257;60305;-69
2023/02/27 07:00:22;;;;;;;8.80;2.80;;;;;;;1.75;58.43;101037.11;105614;1262;74022;-68
2023/02/27 07:02:50;;;;;;;8.30;2.60;;;;;;;1.84;58.49;101041.14;105267;1261;71365;-68
2023/02/27 07:05:21;;;;;;;8.80;3.00;;;;;;;1.89;58.18;101048.27;105777;1262;73846;-67
2023/02/27 07:07:50;;;;;;;6.70;2.80;;;;;;;1.92;57.85;101045.23;105364;1258;60134;-68
2023/02/27 07:10:19;;;;;;;7.00;2.80;;;;;;;1.91;58.06;101041.64;105689;1257;61044;-68
2023/02/27 07:12:48;;;;;;;7.80;3.40;;;;;;;1.89;58.09;101043.77;105180;1262;74011;-68
2023/02/27 16:45:49;;;;;;;8.20;2.70;;;;;;;1.87;57.42;101375.65;105465;1264;604587;-56
2023/02/27 16:48:17;;;;;;;5.30;2.00;;;;;;;2.24;56.41;101384.65;106895;1250;361329;-55
2023/02/27 16:50:43;;;;;;;6.60;3.10;;;;;;;2.18;56.39;101382.59;107441;1244;59905;-56
2023/02/27 16:53:10;;;;;;;6.10;2.40;;;;;;;2.11;56.66;101387.83;107263;1249;73115;-55
2023/02/27 16:55:38;;;;;;;5.70;2.10;;;;;;;1.98;56.86;101385.08;107247;1247;71118;-56
2023/02/27 16:58:05;;;;;;;5.80;2.20;;;;;;;1.93;57.08;101391.61;107568;1244;73636;-56
2023/02/27 17:00:33;;;;;;;7.70;2.00;;;;;;;1.94;57.13;101391.91;107403;1244;60233;-55
2023/02/27 17:03:00;;;;;;;7.40;2.50;;;;;;;1.92;57.28;101395.27;107606;1250;60869;-55
2023/02/27 17:05:27;;;;;;;6.00;1.90;;;;;;;1.85;57.56;101397.70;107688;1247;73515;-55
2023/02/27 17:07:56;;;;;;;9.20;2.10;;;;;;;1.80;57.85;101396.80;107539;1247;70264;-55
2023/02/27 17:10:24;;;;;;;7.00;3.00;;;;;;;1.78;57.96;101401.17;107332;1248;73535;-55
2023/02/27 17:12:56;;;;;;;7.20;2.60;;;;;;;1.75;57.96;101404.04;107562;1245;59979;-57
2023/02/27 17:15:26;;;;;;;7.20;3.30;;;;;;;1.64;58.23;101408.30;107734;1245;61120;-56
2023/02/27 17:17:53;;;;;;;6.60;2.70;;;;;;;1.59;58.02;101414.66;107219;1248;73766;-56
2023/02/27 17:20:20;;;;;;;6.60;2.50;;;;;;;1.58;57.94;101417.27;107520;1247;71197;-55
2023/02/27 17:22:50;;;;;;;5.90;2.10;;;;;;;1.61;57.73;101420.82;107555;1245;72521;-56
2023/02/27 17:25:17;;;;;;;6.50;2.70;;;;;;;1.63;57.91;101427.01;107436;1241;59620;-55
2023/02/27 17:27:44;;;;;;;9.90;3.70;;;;;;;1.70;57.95;101430.65;107447;1244;59886;-56
2023/02/27 17:30:11;;;;;;;8.20;2.90;;;;;;;1.72;57.58;101429.38;107429;1242;74011;-56
2023/02/27 17:32:39;;;;;;;9.20;3.40;;;;;;;1.76;57.38;101429.11;107537;1241;69910;-55
2023/02/27 17:35:06;;;;;;;7.70;2.50;;;;;;;1.67;57.75;101434.52;107409;1254;73532;-55
2023/02/27 17:37:33;;;;;;;6.60;2.70;;;;;;;1.71;57.45;101437.02;107437;1242;59741;-55
2023/02/27 17:40:03;;;;;;;7.00;2.00;;;;;;;1.62;57.61;101437.92;107495;1244;60972;-55
2023/02/27 17:42:31;;;;;;;8.80;2.90;;;;;;;1.59;57.88;101436.80;107856;1244;73800;-55
2023/02/27 17:44:58;;;;;;;6.70;2.50;;;;;;;1.55;57.94;101443.14;107456;1245;71141;-54
2023/02/27 17:47:25;;;;;;;7.50;3.50;;;;;;;1.55;57.72;101449.89;107772;1244;73320;-54
2023/02/27 17:49:52;;;;;;;10.40;3.00;;;;;;;1.56;57.71;101455.92;107374;1241;60184;-55
2023/02/27 17:52:19;;;;;;;7.00;2.20;;;;;;;1.51;57.78;101459.16;107376;1241;61197;-54
2023/02/27 17:54:46;;;;;;;8.80;2.30;;;;;;;1.45;57.74;101463.61;107387;1244;72835;-55
2023/02/27 17:57:13;;;;;;;7.60;2.50;;;;;;;1.40;57.81;101467.17;107411;1244;71025;-54
2023/02/27 17:59:40;;;;;;;7.50;2.60;;;;;;;1.37;58.14;101474.01;107464;1245;72535;-56
2023/02/27 18:02:09;;;;;;;8.80;3.20;;;;;;;1.34;58.30;101477.02;107321;1244;60286;-53
2023/02/27 18:04:36;;;;;;;6.90;3.30;;;;;;;1.29;58.19;101478.17;107554;1241;60897;-54
2023/02/27 18:07:03;;;;;;;6.50;2.20;;;;;;;1.28;58.32;101478.71;107631;1240;74149;-57
2023/02/27 18:09:30;;;;;;;6.70;2.60;;;;;;;1.33;58.28;101485.52;107617;1240;71959;-56
2023/02/27 18:11:57;;;;;;;7.70;3.30;;;;;;;1.32;58.27;101485.71;107946;1240;72227;-54
2023/02/27 18:14:26;;;;;;;8.80;3.50;;;;;;;1.28;58.11;101485.30;107859;1240;60700;-55
2023/02/27 18:16:53;;;;;;;8.90;3.60;;;;;;;1.27;58.11;101493.43;107641;1241;61113;-56
2023/02/27 18:19:21;;;;;;;8.70;3.10;;;;;;;1.23;58.22;101492.84;107585;1241;73902;-57
2023/02/27 18:21:48;;;;;;;6.90;3.20;;;;;;;1.20;58.26;101495.50;108108;1240;70179;-56
2023/02/27 18:24:16;;;;;;;9.90;4.20;;;;;;;1.16;58.29;101500.94;107900;1240;73587;-55
2023/02/27 18:26:42;;;;;;;8.60;3.50;;;;;;;1.13;58.27;101500.85;108057;1240;59741;-55
2023/02/27 18:29:10;;;;;;;9.90;4.10;;;;;;;1.16;58.20;101504.73;109481;1238;61247;-56
2023/02/27 18:31:39;;;;;;;8.30;2.70;;;;;;;1.23;58.13;101512.88;107754;1240;73548;-55
2023/02/27 18:34:06;;;;;;;10.40;3.70;;;;;;;1.24;58.09;101516.66;107673;1241;69093;-56
2023/02/27 18:36:33;;;;;;;9.50;3.40;;;;;;;1.25;57.95;101530.30;107768;1238;73967;-54
2023/02/27 18:39:00;;;;;;;7.50;2.90;;;;;;;1.20;57.77;101530.92;107674;1240;60125;-55
2023/02/27 18:41:29;;;;;;;7.00;2.60;;;;;;;1.15;57.94;101533.12;107655;1241;60155;-55
2023/02/27 18:43:59;;;;;;;10.70;3.10;;;;;;;1.07;57.91;101539.86;107775;1237;73882;-55
2023/02/27 18:46:26;;;;;;;6.90;3.10;;;;;;;1.02;57.90;101547.06;107718;1240;71107;-55
2023/02/27 18:48:54;;;;;;;9.90;4.20;;;;;;;0.96;58.02;101541.33;107617;1240;73420;-55
2023/02/27 18:51:21;;;;;;;7.70;2.90;;;;;;;0.93;57.94;101545.86;107582;1240;61868;-55
2023/02/27 18:53:48;;;;;;;9.10;3.70;;;;;;;0.96;57.84;101543.20;107473;1239;60906;-54
2023/02/27 18:56:17;;;;;;;8.40;2.90;;;;;;;0.95;57.65;101548.40;107648;1244;72569;-55
2023/02/27 18:58:50;;;;;;;9.00;3.50;;;;;;;0.92;57.69;101547.61;107961;1248;62557;-54
2023/02/27 19:01:22;;;;;;;6.50;2.90;;;;;;;0.87;57.83;101544.95;107839;1238;73393;-55
2023/02/27 19:03:49;;;;;;;9.00;3.70;;;;;;;0.82;57.94;101548.33;107922;1242;60418;-55
2023/02/27 19:06:16;;;;;;;9.00;3.40;;;;;;;0.81;58.18;101549.74;107746;1240;60181;-57
2023/02/27 19:08:44;;;;;;;9.00;3.50;;;;;;;0.76;58.24;101545.17;108020;1238;73700;-54
2023/02/27 19:11:20;;;;;;;7.80;3.30;;;;;;;0.76;58.22;101551.73;107666;1240;71571;-56
2023/02/27 19:13:50;;;;;;;7.30;3.20;;;;;;;0.78;58.09;101556.73;107548;1241;64716;-54
2023/02/27 19:16:19;;;;;;;8.30;3.70;;;;;;;0.78;58.07;101564.13;107570;1238;59827;-54
2023/02/27 19:18:50;;;;;;;9.70;4.50;;;;;;;0.79;58.07;101564.30;107739;1245;61215;-55
2023/02/27 19:21:17;;;;;;;8.30;3.20;;;;;;;0.78;58.29;101565.19;107654;1240;72774;-55
2023/02/27 19:23:44;;;;;;;7.90;3.60;;;;;;;0.77;58.49;101565.02;107804;1240;71218;-56
2023/02/27 19:26:11;;;;;;;8.50;3.90;;;;;;;0.77;58.72;101565.20;107997;1240;72430;-55
2023/02/27 19:28:38;;;;;;;9.00;4.30;;;;;;;0.78;58.82;101562.59;111591;1238;62113;-56
2023/02/27 19:31:10;;;;;;;9.90;3.90;;;;;;;0.81;58.67;101562.35;107869;1238;61292;-56
2023/02/27 19:33:37;;;;;;;10.30;4.30;;;;;;;0.88;58.56;101562.73;107889;1240;72961;-58
2023/02/27 19:36:06;;;;;;;11.90;4.90;;;;;;;0.91;58.53;101565.77;108064;1240;71120;-55
2023/02/27 19:38:34;;;;;;;11.70;4.20;;;;;;;0.94;58.50;101573.32;107917;1237;73364;-55
2023/02/27 19:41:03;;;;;;;8.40;3.80;;;;;;;0.95;58.16;101574.86;108132;1238;59732;-55
2023/02/27 19:43:31;;;;;;;9.60;3.70;;;;;;;0.95;58.13;101578.65;108187;1240;60022;-56
2023/02/27 19:45:58;;;;;;;8.10;2.60;;;;;;;0.92;57.99;101579.21;108010;1244;73968;-56
2023/02/27 19:48:26;;;;;;;8.20;3.40;;;;;;;0.91;58.07;101582.55;108047;1238;71221;-55
2023/02/27 19:50:52;;;;;;;8.40;3.80;;;;;;;0.87;57.75;101584.86;107784;1240;73410;-56
2023/02/27 19:53:19;;;;;;;6.40;2.90;;;;;;;0.84;57.53;101588.39;107873;1237;59907;-56
2023/02/27 19:55:46;;;;;;;8.80;3.90;;;;;;;0.80;57.50;101588.81;107775;1237;61245;-55
2023/02/27 19:58:13;;;;;;;7.40;3.20;;;;;;;0.75;57.34;101590.80;107871;1240;73674;-56
2023/02/27 20:00:40;;;;;;;8.70;2.90;;;;;;;0.75;57.44;101595.63;107854;1240;71081;-56
2023/02/27 20:03:07;;;;;;;7.30;3.30;;;;;;;0.82;57.40;101596.71;108249;1240;72544;-55
2023/02/27 20:05:37;;;;;;;10.10;3.00;;;;;;;0.88;57.22;101598.64;107887;1239;60690;-56
2023/02/27 20:08:04;;;;;;;7.60;3.70;;;;;;;0.91;57.28;101607.59;108201;1237;61118;-56
2023/02/27 20:10:32;;;;;;;9.30;2.90;;;;;;;0.94;57.38;101611.50;107862;1240;73999;-56
2023/02/27 20:12:59;;;;;;;7.30;3.50;;;;;;;0.96;57.02;101616.31;107893;1240;70338;-55
2023/02/27 20:15:29;;;;;;;7.90;3.30;;;;;;;0.95;56.79;101620.64;107974;1240;73657;-56
2023/02/27 20:17:56;;;;;;;8.90;4.60;;;;;;;0.95;56.72;101620.80;108599;1240;60122;-55
2023/02/27 20:20:23;;;;;;;8.70;4.00;;;;;;;0.95;56.33;101619.77;107795;1238;61121;-57
2023/02/27 20:22:51;;;;;;;7.10;3.20;;;;;;;0.85;56.05;101621.00;108266;1240;73831;-55
2023/02/27 20:25:18;;;;;;;6.90;3.20;;;;;;;0.79;56.27;101624.58;108147;1240;71131;-55
2023/02/27 20:27:46;;;;;;;7.80;3.60;;;;;;;0.73;56.47;101627.46;107876;1238;73297;-56
2023/02/27 20:30:13;;;;;;;9.90;3.60;;;;;;;0.70;56.56;101629.77;107911;1240;60589;-55
2023/02/27 20:32:45;;;;;;;8.90;3.40;;;;;;;0.62;56.36;101628.00;107985;1237;59721;-55
2023/02/27 20:35:13;;;;;;;7.70;2.70;;;;;;;0.59;56.68;101627.55;107946;1240;72556;-55
2023/02/27 20:37:39;;;;;;;9.00;4.10;;;;;;;0.56;56.75;101629.50;107897;1240;70345;-56
2023/02/27 20:40:08;;;;;;;8.10;3.80;;;;;;;0.54;56.71;101631.95;107883;1239;73421;-56
2023/02/27 20:42:36;;;;;;;8.20;4.00;;;;;;;0.50;56.84;101630.80;108032;1240;59879;-56
2023/02/27 20:45:04;;;;;;;10.10;4.60;;;;;;;0.49;56.89;101633.44;108050;1238;60995;-56
2023/02/27 20:47:31;;;;;;;14.80;3.80;;;;;;;0.56;57.14;101630.87;107941;1236;74105;-56
2023/02/27 20:49:59;;;;;;;7.60;2.50;;;;;;;0.66;56.84;101633.97;107929;1238;71083;-55
2023/02/27 20:52:26;;;;;;;7.60;2.60;;;;;;;0.71;56.40;101638.38;108085;1237;73504;-56
2023/02/27 20:54:55;;;;;;;8.10;3.00;;;;;;;0.73;56.32;101641.80;107868;1241;61610;-56
2023/02/27 20:57:22;;;;;;;7.20;3.30;;;;;;;0.69;56.27;101644.63;107928;1240;61156;-56
2023/02/27 20:59:49;;;;;;;7.10;2.80;;;;;;;0.64;56.10;101644.89;107894;1238;73680;-55
2023/02/27 21:02:16;;;;;;;8.30;3.40;;;;;;;0.63;56.45;101650.45;107933;1240;71090;-55
2023/02/27 21:04:45;;;;;;;8.50;2.90;;;;;;;0.60;56.55;101649.46;107859;1238;73981;-55
2023/02/27 21:07:15;;;;;;;8.80;2.70;;;;;;;0.58;56.97;101654.69;107960;1240;60484;-55
2023/02/27 21:09:43;;;;;;;8.70;3.50;;;;;;;0.58;56.80;101655.19;108236;1236;60448;-55
2023/02/27 21:12:11;;;;;;;9.80;3.90;;;;;;;0.57;56.81;101655.39;108122;1240;74744;-55
2023/02/27 21:14:42;;;;;;;7.70;3.30;;;;;;;0.54;56.39;101655.27;108601;1240;70210;-56
2023/02/27 21:17:12;;;;;;;9.50;4.20;;;;;;;0.50;56.29;101662.05;107845;1244;73221;-56
2023/02/27 21:19:43;;;;;;;8.00;2.90;;;;;;;0.45;56.08;101663.71;108159;1240;60353;-56
2023/02/27 21:22:10;;;;;;;6.80;2.80;;;;;;;0.40;56.04;101668.98;107924;1240;60436;-55
2023/02/27 21:24:37;;;;;;;6.30;2.40;;;;;;;0.36;55.96;101671.98;108096;1240;74482;-56
2023/02/27 21:27:04;;;;;;;10.60;4.10;;;;;;;0.31;56.18;101671.02;108137;1240;71453;-55
2023/02/27 21:29:32;;;;;;;10.60;4.10;;;;;;;0.29;56.24;101674.18;107899;1240;73206;-55
2023/02/27 21:31:59;;;;;;;10.70;3.50;;;;;;;0.27;56.31;101673.34;108035;1240;60445;-55
2023/02/27 21:34:27;;;;;;;7.50;2.40;;;;;;;0.25;56.28;101670.61;108288;1238;60935;-56
2023/02/27 21:36:56;;;;;;;8.10;4.00;;;;;;;0.24;56.41;101664.41;107819;1237;74072;-55
2023/02/27 21:39:45;;;;;;;8.60;3.90;;;;;;;0.24;56.39;101661.83;107844;1240;62886;-56
2023/02/27 21:42:12;;;;;;;8.00;4.00;;;;;;;0.23;56.36;101664.59;108095;1238;73951;-55
2023/02/27 21:44:40;;;;;;;7.00;3.10;;;;;;;0.24;56.37;101662.69;107827;1239;60842;-55
2023/02/27 21:47:08;;;;;;;8.00;3.10;;;;;;;0.31;56.33;101659.29;108055;1238;61420;-55
2023/02/27 21:49:38;;;;;;;8.60;2.70;;;;;;;0.40;56.13;101663.97;107864;1240;73611;-55
2023/02/27 21:52:04;;;;;;;7.00;2.60;;;;;;;0.43;55.99;101665.48;107876;1240;70931;-55
2023/02/27 21:54:33;;;;;;;8.60;2.40;;;;;;;0.41;55.73;101667.74;107599;1238;72343;-56
2023/02/27 21:57:02;;;;;;;7.00;2.10;;;;;;;0.38;55.75;101665.73;107849;1240;61637;-58
2023/02/27 21:59:29;;;;;;;5.20;2.00;;;;;;;0.36;55.69;101667.84;107672;1240;61334;-56
2023/02/27 22:01:56;;;;;;;8.60;3.20;;;;;;;0.32;55.86;101669.63;107813;1240;74800;-55
2023/02/27 22:04:23;;;;;;;8.10;2.90;;;;;;;0.31;55.75;101671.38;108510;1240;70923;-57
2023/02/27 22:06:50;;;;;;;6.70;2.10;;;;;;;0.28;55.76;101673.67;107959;1240;73491;-56
2023/02/27 22:09:22;;;;;;;7.80;3.50;;;;;;;0.26;55.75;101674.74;107927;1240;60541;-56
2023/02/27 22:11:50;;;;;;;8.00;3.00;;;;;;;0.21;55.28;101676.02;107959;1242;60442;-56
2023/02/27 22:14:17;;;;;;;8.90;3.30;;;;;;;0.20;55.37;101679.85;108366;1240;74846;-57
2023/02/27 22:16:45;;;;;;;6.70;2.80;;;;;;;0.16;55.14;101678.69;107823;1240;71486;-57
2023/02/27 22:19:18;;;;;;;6.70;2.90;;;;;;;0.13;55.27;101682.01;107825;1240;73592;-57
2023/02/27 22:21:45;;;;;;;7.60;2.60;;;;;;;0.11;55.44;101686.71;107900;1238;60538;-57
2023/02/27 22:24:12;;;;;;;9.70;4.10;;;;;;;0.11;55.34;101687.92;107814;1240;60887;-57
2023/02/27 22:26:40;;;;;;;8.20;3.40;;;;;;;0.09;55.46;101692.09;107853;1238;74857;-57
2023/02/27 22:29:07;;;;;;;8.80;3.70;;;;;;;0.08;55.48;101692.10;107735;1243;70902;-58
2023/02/27 22:31:36;;;;;;;8.00;3.40;;;;;;;0.06;55.44;101690.77;108212;1240;72480;-57
2023/02/27 22:34:05;;;;;;;9.80;3.80;;;;;;;0.04;55.39;101692.16;108125;1240;60539;-57
2023/02/27 22:36:32;;;;;;;7.80;2.90;;;;;;;-0.01;55.45;101693.62;107860;1238;60892;-57
2023/02/27 22:39:00;;;;;;;6.40;2.60;;;;;;;-0.02;55.36;101694.48;107908;1240;74479;-57
2023/02/27 22:41:29;;;;;;;7.80;2.90;;;;;;;-0.03;55.33;101689.68;108488;1240;71013;-57
2023/02/27 22:43:57;;;;;;;8.40;3.20;;;;;;;-0.03;55.45;101690.88;108036;1240;73522;-57
2023/02/27 22:46:25;;;;;;;7.10;2.90;;;;;;;0.01;55.55;101688.92;108250;1238;60464;-57
2023/02/27 22:48:53;;;;;;;7.80;3.10;;;;;;;0.02;55.55;101684.09;107856;1240;62875;-55
2023/02/27 22:51:20;;;;;;;6.70;2.70;;;;;;;0.01;55.07;101686.69;108067;1240;74679;-55
2023/02/27 22:53:47;;;;;;;8.40;3.50;;;;;;;-0.00;55.38;101688.09;107853;1237;71793;-55
2023/02/27 22:56:15;;;;;;;7.90;3.60;;;;;;;-0.00;55.44;101688.09;108188;1241;73516;-56
2023/02/27 22:58:48;;;;;;;7.70;2.60;;;;;;;0.01;55.64;101689.63;107882;1240;60353;-55
2023/02/27 23:01:18;;;;;;;7.50;2.80;;;;;;;0.02;55.42;101689.78;107871;1236;61006;-56
2023/02/27 23:03:46;;;;;;;6.80;2.20;;;;;;;0.03;55.61;101686.48;108159;1236;74667;-56
2023/02/27 23:06:15;;;;;;;7.50;2.80;;;;;;;0.00;55.70;101684.45;108200;1240;71245;-55
2023/02/27 23:08:42;;;;;;;7.00;2.90;;;;;;;-0.03;55.81;101679.51;107976;1238;73568;-56
2023/02/27 23:11:14;;;;;;;6.60;3.40;;;;;;;-0.04;55.80;101682.10;107874;1240;60810;-56
2023/02/27 23:13:41;;;;;;;8.70;2.40;;;;;;;-0.03;55.68;101682.09;107924;1240;61367;-56
2023/02/27 23:16:12;;;;;;;6.90;2.40;;;;;;;-0.04;55.80;101680.90;107931;1238;74584;-57
2023/02/27 23:18:40;;;;;;;5.90;2.40;;;;;;;-0.06;56.03;101679.20;107888;1240;70805;-57
2023/02/27 23:21:08;;;;;;;7.60;2.30;;;;;;;-0.06;55.89;101676.96;107893;1244;72567;-56
2023/02/27 23:23:38;;;;;;;8.50;2.30;;;;;;;0.03;55.60;101679.59;107805;1237;61375;-56
2023/02/27 23:26:06;;;;;;;6.90;3.00;;;;;;;0.04;55.27;101676.13;107855;1236;61518;-56
2023/02/27 23:28:37;;;;;;;6.00;2.30;;;;;;;0.03;55.16;101676.65;107954;1240;74650;-56
2023/02/27 23:31:05;;;;;;;6.60;2.50;;;;;;;0.03;55.55;101673.72;108190;1240;70960;-56
2023/02/27 23:33:32;;;;;;;5.70;2.20;;;;;;;0.03;55.80;101669.25;108147;1238;73299;-57
2023/02/27 23:36:00;;;;;;;7.50;2.60;;;;;;;0.02;55.75;101673.40;107816;1238;60425;-56
2023/02/27 23:38:28;;;;;;;7.50;2.90;;;;;;;-0.00;55.68;101678.26;108180;1240;60429;-56
2023/02/27 23:40:55;;;;;;;7.10;2.90;;;;;;;-0.04;55.64;101680.71;107868;1240;73576;-56
2023/02/27 23:43:22;;;;;;;7.50;2.40;;;;;;;-0.07;55.52;101680.42;107835;1240;71265;-56
2023/02/27 23:45:49;;;;;;;6.40;2.30;;;;;;;-0.11;55.48;101684.80;108307;1240;73591;-56
2023/02/27 23:48:17;;;;;;;6.50;2.50;;;;;;;-0.19;55.37;101684.23;107929;1240;60546;-57
2023/02/27 23:50:44;;;;;;;6.40;2.70;;;;;;;-0.23;55.60;101681.01;107872;1238;61013;-56
2023/02/27 23:53:14;;;;;;;7.90;3.00;;;;;;;-0.25;55.46;101678.61;107839;1240;73664;-56
2023/02/27 23:55:42;;;;;;;10.60;3.80;;;;;;;-0.29;55.43;101673.66;108067;1240;71143;-56
2023/02/27 23:58:09;;;;;;;6.50;2.50;;;;;;;-0.35;55.45;101671.17;108168;1238;73502;-56
